createdAt,value
2019-03-23T00:02:01.542Z,58.33
2019-03-23T00:04:31.944Z,58.57
2019-03-23T00:07:02.391Z,57.22
2019-03-23T00:09:33.064Z,56.82
2019-03-23T00:12:03.123Z,57.13
2019-03-23T00:14:33.426Z,57.09
2019-03-23T00:17:03.507Z,57.48
2019-03-23T00:19:33.911Z,57.00
2019-03-23T00:22:06.113Z,57.27
2019-03-23T00:24:36.868Z,57.05
2019-03-23T00:27:07.520Z,55.87
2019-03-23T00:29:38.172Z,55.99
2019-03-23T00:32:08.703Z,55.87
2019-03-23T00:34:39.259Z,55.34
2019-03-23T00:37:09.332Z,55.09
2019-03-23T00:39:39.754Z,56.11
2019-03-23T00:42:10.303Z,56.11
2019-03-23T00:44:40.853Z,56.30
2019-03-23T00:47:10.918Z,56.22
2019-03-23T00:49:41.339Z,55.51
2019-03-23T00:52:11.889Z,55.64
2019-03-23T00:54:42.540Z,55.04
2019-03-23T00:57:13.075Z,54.92
2019-03-23T00:59:42.939Z,55.38
2019-03-23T01:02:13.354Z,55.33
2019-03-23T01:04:43.223Z,55.39
2019-03-23T01:07:13.632Z,54.97
2019-03-23T01:09:43.510Z,55.08
2019-03-23T01:12:13.916Z,55.25
2019-03-23T01:14:43.993Z,55.10
2019-03-23T01:17:14.517Z,55.09
2019-03-23T01:19:44.582Z,54.23
2019-03-23T01:22:15.087Z,53.70
2019-03-23T01:24:45.858Z,54.07
2019-03-23T01:27:16.203Z,54.28
2019-03-23T01:29:46.158Z,53.25
2019-03-23T01:32:16.688Z,53.85
2019-03-23T01:34:46.751Z,54.37
2019-03-23T01:37:17.276Z,54.38
2019-03-23T01:39:47.927Z,54.33
2019-03-23T01:42:18.581Z,53.73
2019-03-23T01:44:48.539Z,53.73
2019-03-23T01:47:19.064Z,54.15
2019-03-23T01:49:48.917Z,53.10
2019-03-23T01:52:19.334Z,53.66
2019-03-23T01:54:49.407Z,53.63
2019-03-23T01:57:19.944Z,53.74
2019-03-23T01:59:50.465Z,53.22
2019-03-23T02:02:20.544Z,54.29
2019-03-23T02:04:51.070Z,53.92
2019-03-23T02:07:21.720Z,54.24
2019-03-23T02:09:52.377Z,53.74
2019-03-23T02:12:22.332Z,54.20
2019-03-23T02:14:52.757Z,54.39
2019-03-23T02:17:23.404Z,54.19
2019-03-23T02:19:53.255Z,54.92
2019-03-23T02:22:23.788Z,54.46
2019-03-23T02:24:54.422Z,53.56
2019-03-23T02:27:24.872Z,55.32
2019-03-23T02:29:54.950Z,54.05
2019-03-23T02:32:25.576Z,54.94
2019-03-23T02:34:56.114Z,55.10
2019-03-23T02:37:27.870Z,56.21
2019-03-23T02:39:57.944Z,56.83
2019-03-23T02:42:27.904Z,57.17
2019-03-23T02:44:58.410Z,56.97
2019-03-23T02:47:28.384Z,57.43
2019-03-23T02:49:58.501Z,56.60
2019-03-23T02:52:28.455Z,56.88
2019-03-23T02:54:59.002Z,56.70
2019-03-23T02:57:29.638Z,56.38
2019-03-23T03:00:00.440Z,56.01
2019-03-23T03:02:31.043Z,55.65
2019-03-23T03:05:00.894Z,55.76
2019-03-23T03:07:41.805Z,55.74
2019-03-23T03:10:04.082Z,55.09
2019-03-23T03:12:34.474Z,55.41
2019-03-23T03:15:06.420Z,55.11
2019-03-23T03:17:36.693Z,54.75
2019-03-23T03:20:10.803Z,55.24
2019-03-23T03:22:41.179Z,54.94
2019-03-23T03:25:12.127Z,54.81
2019-03-23T03:27:42.778Z,54.19
2019-03-23T03:30:13.515Z,54.17
2019-03-23T03:32:44.174Z,53.79
2019-03-23T03:35:14.132Z,53.90
2019-03-23T03:37:55.812Z,54.21
2019-03-23T03:40:16.731Z,54.49
2019-03-23T03:42:46.811Z,54.03
2019-03-23T03:45:28.093Z,54.79
2019-03-23T03:47:58.506Z,55.10
2019-03-23T03:50:28.586Z,55.23
2019-03-23T03:52:58.987Z,55.00
2019-03-23T03:55:29.071Z,55.50
2019-03-23T03:57:59.594Z,55.47
2019-03-23T04:00:29.668Z,55.67
2019-03-23T04:03:00.214Z,55.86
2019-03-23T04:05:30.936Z,56.63
2019-03-23T04:08:11.225Z,56.79
2019-03-23T04:10:33.562Z,56.87
2019-03-23T04:13:03.531Z,57.47
2019-03-23T04:15:34.042Z,58.08
2019-03-23T04:18:04.005Z,58.13
2019-03-23T04:20:34.540Z,58.28
2019-03-23T04:23:04.601Z,58.12
2019-03-23T04:25:35.228Z,58.34
2019-03-23T04:28:05.301Z,58.24
2019-03-23T04:30:35.820Z,58.18
2019-03-23T04:33:05.879Z,58.05
2019-03-23T04:35:36.388Z,57.81
2019-03-23T04:38:07.056Z,56.71
2019-03-23T04:40:37.708Z,56.67
2019-03-23T04:43:08.357Z,57.38
2019-03-23T04:45:38.317Z,57.01
2019-03-23T04:48:08.842Z,57.22
2019-03-23T04:50:38.691Z,57.38
2019-03-23T04:53:09.108Z,57.44
2019-03-23T04:55:39.184Z,57.43
2019-03-23T04:58:09.709Z,56.75
2019-03-23T05:00:39.661Z,57.14
2019-03-23T05:03:10.073Z,57.38
2019-03-23T05:05:40.627Z,57.78
2019-03-23T05:08:10.704Z,58.02
2019-03-23T05:10:41.232Z,57.64
2019-03-23T05:13:11.291Z,57.86
2019-03-23T05:15:41.816Z,58.00
2019-03-23T05:18:11.881Z,58.26
2019-03-23T05:20:42.389Z,57.95
2019-03-23T05:23:12.358Z,57.66
2019-03-23T05:25:42.994Z,58.01
2019-03-23T05:28:13.053Z,58.16
2019-03-23T05:30:43.355Z,58.18
2019-03-23T05:33:13.923Z,58.54
2019-03-23T05:35:43.772Z,57.00
2019-03-23T05:38:14.304Z,57.95
2019-03-23T05:40:44.275Z,57.67
2019-03-23T05:43:14.790Z,57.81
2019-03-23T05:45:44.856Z,58.29
2019-03-23T05:48:15.379Z,57.72
2019-03-23T05:50:46.031Z,57.18
2019-03-23T05:53:16.358Z,57.29
2019-03-23T05:55:46.436Z,56.80
2019-03-23T05:58:16.965Z,56.98
2019-03-23T06:00:46.921Z,57.53
2019-03-23T06:03:17.444Z,57.02
2019-03-23T06:05:48.203Z,57.35
2019-03-23T06:08:18.526Z,57.97
2019-03-23T06:10:48.394Z,57.39
2019-03-23T06:13:18.932Z,57.58
2019-03-23T06:15:48.991Z,57.64
2019-03-23T06:18:19.514Z,55.59
2019-03-23T06:21:02.541Z,55.59
2019-03-23T06:23:32.504Z,55.89
2019-03-23T06:26:03.139Z,55.77
2019-03-23T06:28:33.088Z,55.60
2019-03-23T06:31:03.612Z,55.16
2019-03-23T06:33:33.565Z,55.53
2019-03-23T06:36:04.098Z,55.74
2019-03-23T06:38:34.160Z,54.07
2019-03-23T06:41:04.670Z,52.84
2019-03-23T06:43:34.753Z,51.55
2019-03-23T06:46:05.252Z,50.80
2019-03-23T06:48:35.223Z,51.33
2019-03-23T06:51:05.659Z,52.67
2019-03-23T06:53:36.187Z,53.34
2019-03-23T06:56:06.634Z,53.94
2019-03-23T06:58:38.671Z,54.36
2019-03-23T07:01:09.281Z,54.42
2019-03-23T07:03:39.245Z,53.67
2019-03-23T07:06:09.737Z,53.36
2019-03-23T07:08:40.619Z,52.66
2019-03-23T07:11:13.033Z,52.96
2019-03-23T07:13:49.420Z,53.21
2019-03-23T07:16:19.726Z,53.36
2019-03-23T07:18:50.106Z,52.59
2019-03-23T07:21:20.432Z,51.52
2019-03-23T07:23:50.963Z,51.56
2019-03-23T07:26:22.250Z,51.39
2019-03-23T07:28:52.468Z,52.77
2019-03-23T07:31:22.552Z,50.99
2019-03-23T07:33:53.077Z,49.26
2019-03-23T07:36:23.831Z,49.59
2019-03-23T07:38:54.359Z,50.63
2019-03-23T07:41:24.440Z,50.11
2019-03-23T07:43:54.845Z,50.12
2019-03-23T07:46:24.816Z,50.99
2019-03-23T07:48:55.348Z,50.58
2019-03-23T07:51:25.412Z,50.62
2019-03-23T07:53:55.918Z,49.37
2019-03-23T07:56:26.690Z,50.83
2019-03-23T07:58:57.336Z,50.24
2019-03-23T08:01:28.643Z,48.86
2019-03-23T08:03:59.474Z,49.92
2019-03-23T08:06:30.098Z,50.61
2019-03-23T08:09:00.335Z,51.07
2019-03-23T08:11:30.906Z,51.25
2019-03-23T08:14:00.754Z,53.26
2019-03-23T08:16:30.967Z,55.49
2019-03-23T08:19:01.632Z,56.67
2019-03-23T08:21:32.161Z,56.23
2019-03-23T08:24:02.718Z,55.96
2019-03-23T08:26:32.792Z,60.08
2019-03-23T08:29:03.361Z,63.14
2019-03-23T08:31:33.278Z,63.37
2019-03-23T08:34:03.819Z,62.44
2019-03-23T08:36:33.864Z,60.87
2019-03-23T08:39:05.815Z,58.63
2019-03-23T08:41:36.255Z,57.91
2019-03-23T08:44:06.510Z,58.97
2019-03-23T08:46:36.574Z,57.32
2019-03-23T08:49:07.094Z,57.09
2019-03-23T08:51:37.167Z,57.50
2019-03-23T08:54:07.480Z,57.88
2019-03-23T08:56:37.646Z,57.72
2019-03-23T08:59:07.971Z,59.70
2019-03-23T09:01:38.618Z,62.96
2019-03-23T09:04:09.149Z,61.81
2019-03-23T09:06:39.800Z,63.76
2019-03-23T09:09:09.882Z,65.93
2019-03-23T09:11:40.918Z,66.71
2019-03-23T09:14:11.163Z,66.43
2019-03-23T09:16:41.223Z,65.42
2019-03-23T09:19:11.630Z,63.47
2019-03-23T09:21:42.296Z,62.95
2019-03-23T09:24:14.380Z,62.13
2019-03-23T09:26:45.042Z,64.23
2019-03-23T09:29:15.681Z,66.40
2019-03-23T09:31:46.337Z,65.50
2019-03-23T09:34:16.680Z,66.05
2019-03-23T09:36:46.743Z,65.13
2019-03-23T09:39:17.148Z,65.80
2019-03-23T09:41:47.228Z,63.41
2019-03-23T09:44:17.752Z,62.38
2019-03-23T09:46:48.405Z,61.21
2019-03-23T09:49:19.054Z,60.34
2019-03-23T09:51:49.593Z,62.05
2019-03-23T09:54:20.151Z,61.88
2019-03-23T09:56:50.004Z,59.76
2019-03-23T09:59:20.539Z,60.43
2019-03-23T10:01:50.498Z,61.83
2019-03-23T10:04:21.022Z,62.42
2019-03-23T10:06:51.678Z,62.35
2019-03-23T10:09:21.522Z,61.43
2019-03-23T10:11:51.356Z,61.23
2019-03-23T10:14:21.301Z,60.63
2019-03-23T10:16:51.031Z,60.96
2019-03-23T10:19:23.156Z,59.36
2019-03-23T10:21:52.224Z,59.27
2019-03-23T10:24:22.263Z,59.34
2019-03-23T10:26:52.718Z,58.71
2019-03-23T10:29:22.653Z,60.13
2019-03-23T10:31:52.273Z,60.77
2019-03-23T10:34:22.320Z,60.75
2019-03-23T10:36:51.952Z,60.35
2019-03-23T10:39:21.989Z,59.06
2019-03-23T10:41:51.708Z,59.22
2019-03-23T10:44:21.654Z,59.37
2019-03-23T10:46:51.590Z,59.51
2019-03-23T10:49:21.311Z,59.62
2019-03-23T10:51:51.263Z,59.92
2019-03-23T10:54:21.192Z,59.64
2019-03-23T10:56:51.015Z,59.33
2019-03-23T10:59:20.851Z,57.56
2019-03-23T11:01:50.683Z,58.44
2019-03-23T11:04:20.627Z,56.92
2019-03-23T11:06:50.455Z,57.10
2019-03-23T11:09:20.601Z,57.39
2019-03-23T11:11:50.425Z,57.80
2019-03-23T11:14:21.088Z,58.15
2019-03-23T11:16:50.923Z,59.81
2019-03-23T11:19:20.959Z,61.88
2019-03-23T11:21:50.783Z,61.34
2019-03-23T11:24:20.729Z,62.41
2019-03-23T11:26:50.560Z,63.61
2019-03-23T11:29:20.287Z,62.37
2019-03-23T11:31:50.227Z,61.21
2019-03-23T11:34:20.264Z,60.53
2019-03-23T11:36:49.987Z,59.92
2019-03-23T11:39:19.932Z,59.01
2019-03-23T11:41:49.756Z,57.62
2019-03-23T11:44:19.600Z,57.93
2019-03-23T11:46:49.533Z,57.51
2019-03-23T11:49:19.470Z,55.46
2019-03-23T11:51:49.304Z,55.50
2019-03-23T11:54:19.127Z,54.95
2019-03-23T11:56:48.962Z,54.29
2019-03-23T11:59:18.803Z,53.72
2019-03-23T12:01:51.970Z,54.62
2019-03-23T12:04:19.911Z,54.90
2019-03-23T12:06:49.625Z,54.29
2019-03-23T12:09:19.457Z,53.87
2019-03-23T12:11:49.401Z,54.84
2019-03-23T12:14:19.235Z,55.42
2019-03-23T12:16:49.060Z,54.25
2019-03-23T12:19:18.893Z,54.11
2019-03-23T12:21:50.758Z,54.42
2019-03-23T12:24:20.106Z,54.35
2019-03-23T12:26:49.927Z,54.14
2019-03-23T12:29:19.659Z,54.20
2019-03-23T12:31:49.603Z,52.84
2019-03-23T12:34:19.429Z,53.74
2019-03-23T12:36:49.270Z,54.01
2019-03-23T12:39:19.205Z,54.46
2019-03-23T12:41:49.144Z,54.14
2019-03-23T12:44:18.976Z,54.19
2019-03-23T12:46:48.812Z,54.06
2019-03-23T12:49:18.634Z,53.85
2019-03-23T12:51:48.466Z,54.09
2019-03-23T12:54:18.299Z,54.11
2019-03-23T12:56:48.137Z,54.58
2019-03-23T12:59:18.077Z,54.59
2019-03-23T13:01:48.013Z,54.14
2019-03-23T13:04:17.839Z,54.46
2019-03-23T13:06:47.781Z,54.90
2019-03-23T13:09:17.562Z,54.87
2019-03-23T13:11:47.439Z,54.42
2019-03-23T13:14:17.384Z,54.79
2019-03-23T13:16:47.115Z,54.26
2019-03-23T13:19:17.051Z,54.47
2019-03-23T13:21:46.884Z,55.15
2019-03-23T13:24:16.717Z,55.13
2019-03-23T13:26:46.653Z,55.27
2019-03-23T13:29:16.479Z,55.14
2019-03-23T13:31:46.324Z,55.26
2019-03-23T13:34:16.255Z,55.44
2019-03-23T13:36:46.194Z,55.04
2019-03-23T13:39:16.026Z,55.01
2019-03-23T13:41:49.441Z,54.97
2019-03-23T13:44:19.271Z,55.83
2019-03-23T13:46:49.004Z,55.94
2019-03-23T13:49:18.837Z,55.54
2019-03-23T13:51:48.770Z,55.33
2019-03-23T13:54:18.604Z,55.52
2019-03-23T13:56:48.439Z,56.15
2019-03-23T13:59:18.374Z,56.30
2019-03-23T14:01:48.310Z,56.50
2019-03-23T14:04:18.246Z,56.78
2019-03-23T14:06:48.848Z,57.22
2019-03-23T14:09:18.630Z,57.40
2019-03-23T14:11:54.862Z,57.49
2019-03-23T14:14:19.615Z,57.83
2019-03-23T14:16:49.766Z,58.16
2019-03-23T14:19:19.600Z,57.66
2019-03-23T14:21:49.534Z,57.78
2019-03-23T14:24:19.367Z,57.53
2019-03-23T14:26:49.304Z,57.60
2019-03-23T14:29:19.136Z,57.76
2019-03-23T14:31:49.071Z,57.52
2019-03-23T14:34:18.905Z,57.64
2019-03-23T14:36:48.840Z,57.36
2019-03-23T14:39:18.666Z,57.23
2019-03-23T14:41:48.609Z,57.66
2019-03-23T14:44:18.334Z,57.42
2019-03-23T14:46:48.276Z,57.59
2019-03-23T14:49:18.101Z,57.72
2019-03-23T14:51:47.934Z,57.64
2019-03-23T14:54:17.767Z,58.02
2019-03-23T14:56:47.713Z,58.36
2019-03-23T14:59:17.650Z,60.59
2019-03-23T15:01:47.583Z,62.21
2019-03-23T15:04:17.520Z,62.89
2019-03-23T15:06:47.242Z,62.26
2019-03-23T15:09:17.288Z,61.93
2019-03-23T15:11:47.224Z,61.72
2019-03-23T15:14:17.057Z,61.79
2019-03-23T15:16:46.994Z,61.80
2019-03-23T15:19:17.738Z,62.02
2019-03-23T15:21:47.682Z,61.64
2019-03-23T15:24:17.619Z,61.87
2019-03-23T15:26:47.443Z,61.93
2019-03-23T15:29:17.279Z,62.30
2019-03-23T15:31:47.115Z,62.44
2019-03-23T15:34:17.129Z,63.60
2019-03-23T15:36:47.296Z,64.85
2019-03-23T15:39:17.223Z,65.06
2019-03-23T15:41:46.861Z,64.09
2019-03-23T15:44:16.704Z,63.81
2019-03-23T15:46:46.520Z,64.71
2019-03-23T15:49:16.463Z,64.79
2019-03-23T15:51:46.189Z,64.88
2019-03-23T15:54:16.020Z,65.14
2019-03-23T15:56:46.036Z,64.91
2019-03-23T15:59:15.588Z,64.83
2019-03-23T16:01:45.530Z,64.40
2019-03-23T16:04:15.363Z,63.93
2019-03-23T16:06:45.502Z,64.11
2019-03-23T16:09:15.438Z,64.25
2019-03-23T16:11:45.264Z,64.34
2019-03-23T16:14:15.104Z,63.87
2019-03-23T16:16:45.039Z,63.51
2019-03-23T16:19:14.865Z,63.96
2019-03-23T16:21:45.222Z,63.20
2019-03-23T16:24:14.939Z,62.84
2019-03-23T16:26:44.884Z,62.58
2019-03-23T16:29:14.710Z,62.93
2019-03-23T16:31:45.369Z,62.80
2019-03-23T16:34:15.093Z,62.88
2019-03-23T16:36:45.039Z,63.26
2019-03-23T16:39:14.861Z,63.37
2019-03-23T16:41:44.806Z,63.09
2019-03-23T16:44:14.743Z,63.32
2019-03-23T16:46:44.668Z,63.21
2019-03-23T16:49:14.510Z,63.35
2019-03-23T16:51:44.403Z,63.61
2019-03-23T16:54:13.941Z,63.68
2019-03-23T16:56:43.601Z,63.94
2019-03-23T16:59:13.427Z,64.27
2019-03-23T17:01:43.371Z,64.58
2019-03-23T17:04:13.091Z,64.93
2019-03-23T17:06:46.509Z,64.82
2019-03-23T17:09:15.735Z,64.37
2019-03-23T17:11:45.568Z,64.50
2019-03-23T17:14:15.503Z,64.70
2019-03-23T17:16:45.337Z,64.78
2019-03-23T17:19:15.163Z,64.07
2019-03-23T17:21:45.107Z,64.02
2019-03-23T17:24:14.827Z,64.01
2019-03-23T17:26:44.773Z,64.66
2019-03-23T17:29:14.707Z,64.29
2019-03-23T17:31:44.439Z,63.86
2019-03-23T17:34:14.375Z,64.12
2019-03-23T17:36:44.412Z,63.85
2019-03-23T17:39:14.238Z,63.97
2019-03-23T17:41:44.183Z,63.88
2019-03-23T17:44:14.119Z,64.02
2019-03-23T17:46:44.159Z,63.88
2019-03-23T17:49:13.988Z,64.25
2019-03-23T17:51:43.820Z,64.28
2019-03-23T17:54:13.646Z,64.04
2019-03-23T17:56:43.276Z,63.83
2019-03-23T17:59:13.007Z,63.57
2019-03-23T18:01:42.840Z,63.75
2019-03-23T18:04:12.682Z,63.95
2019-03-23T18:06:42.405Z,63.36
2019-03-23T18:09:12.352Z,63.35
2019-03-23T18:11:42.284Z,63.41
2019-03-23T18:14:12.016Z,63.26
2019-03-23T18:16:41.849Z,63.11
2019-03-23T18:19:11.787Z,63.11
2019-03-23T18:21:41.621Z,63.20
2019-03-23T18:24:11.443Z,63.00
2019-03-23T18:26:41.278Z,62.64
2019-03-23T18:29:11.018Z,62.81
2019-03-23T18:31:40.852Z,62.51
2019-03-23T18:34:10.785Z,62.62
2019-03-23T18:36:40.610Z,62.66
2019-03-23T18:39:10.555Z,62.67
2019-03-23T18:41:40.490Z,62.44
2019-03-23T18:44:16.058Z,62.64
2019-03-23T18:46:41.478Z,62.65
2019-03-23T18:49:11.320Z,62.76
2019-03-23T18:51:41.255Z,63.21
2019-03-23T18:54:11.088Z,62.92
2019-03-23T18:56:40.913Z,62.59
2019-03-23T18:59:10.746Z,62.50
2019-03-23T19:01:40.691Z,63.06
2019-03-23T19:04:10.629Z,62.57
2019-03-23T19:06:40.460Z,62.66
2019-03-23T19:09:10.286Z,62.84
2019-03-23T19:11:40.138Z,62.81
2019-03-23T19:14:12.200Z,62.79
2019-03-23T19:16:41.405Z,62.96
2019-03-23T19:19:11.357Z,62.88
2019-03-23T19:21:41.302Z,62.99
2019-03-23T19:24:11.135Z,62.94
2019-03-23T19:26:41.090Z,62.90
2019-03-23T19:29:10.895Z,62.94
2019-03-23T19:31:40.742Z,62.96
2019-03-23T19:34:10.563Z,63.21
2019-03-23T19:36:40.916Z,62.98
2019-03-23T19:39:10.536Z,63.10
2019-03-23T19:41:40.480Z,63.06
2019-03-23T19:44:15.529Z,63.11
2019-03-23T19:46:45.464Z,63.15
2019-03-23T19:49:15.291Z,63.13
2019-03-23T19:51:45.132Z,63.53
2019-03-23T19:54:14.966Z,63.44
2019-03-23T19:56:44.901Z,63.63
2019-03-23T19:59:14.622Z,63.56
2019-03-23T20:01:44.567Z,63.87
2019-03-23T20:04:14.394Z,63.96
2019-03-23T20:06:44.229Z,63.88
2019-03-23T20:09:14.171Z,63.98
2019-03-23T20:11:44.208Z,64.01
2019-03-23T20:14:14.032Z,64.10
2019-03-23T20:16:43.764Z,64.05
2019-03-23T20:19:13.709Z,63.80
2019-03-23T20:21:43.537Z,63.73
2019-03-23T20:24:13.273Z,63.77
2019-03-23T20:26:43.210Z,63.79
2019-03-23T20:29:13.143Z,63.79
2019-03-23T20:31:45.342Z,63.58
2019-03-23T20:34:14.233Z,63.56
2019-03-23T20:36:44.280Z,63.17
2019-03-23T20:39:14.113Z,63.10
2019-03-23T20:41:43.947Z,63.43
2019-03-23T20:44:13.885Z,63.22
2019-03-23T20:46:43.607Z,63.48
2019-03-23T20:49:13.338Z,63.30
2019-03-23T20:51:43.282Z,63.33
2019-03-23T20:54:13.770Z,63.45
2019-03-23T20:56:43.561Z,63.56
2019-03-23T20:59:13.283Z,63.73
2019-03-23T21:01:43.219Z,63.79
2019-03-23T21:04:13.163Z,63.90
2019-03-23T21:06:43.099Z,64.01
2019-03-23T21:09:13.136Z,63.81
2019-03-23T21:11:43.073Z,64.08
2019-03-23T21:15:12.917Z,64.01
2019-03-23T21:17:51.177Z,63.57
2019-03-23T21:20:15.637Z,63.66
2019-03-23T21:22:46.391Z,64.08
2019-03-23T21:25:17.161Z,63.82
2019-03-23T21:27:47.813Z,63.79
2019-03-23T21:30:18.546Z,63.32
2019-03-23T21:32:49.426Z,63.98
2019-03-23T21:35:21.003Z,63.83
2019-03-23T21:37:51.850Z,64.22
2019-03-23T21:40:22.603Z,64.32
2019-03-23T21:42:53.460Z,64.64
2019-03-23T21:45:24.319Z,64.73
2019-03-23T21:47:55.070Z,64.61
2019-03-23T21:50:25.603Z,64.56
2019-03-23T21:52:56.489Z,64.74
2019-03-23T21:55:27.228Z,64.37
2019-03-23T21:57:57.682Z,64.47
2019-03-23T22:00:35.097Z,64.48
2019-03-23T22:03:05.528Z,64.43
2019-03-23T22:05:36.385Z,64.59
2019-03-23T22:08:07.141Z,64.38
2019-03-23T22:10:37.771Z,64.01
2019-03-23T22:13:08.541Z,64.15
2019-03-23T22:15:39.399Z,64.16
2019-03-23T22:18:10.135Z,64.22
2019-03-23T22:20:40.785Z,64.35
2019-03-23T22:23:11.640Z,64.35
2019-03-23T22:25:42.411Z,64.51
2019-03-23T22:28:13.166Z,65.06
2019-03-23T22:30:44.023Z,65.01
2019-03-23T22:33:14.880Z,64.87
2019-03-23T22:35:46.553Z,65.00
2019-03-23T22:38:17.411Z,65.29
2019-03-23T22:40:47.939Z,65.46
2019-03-23T22:43:18.918Z,65.26
2019-03-23T22:45:49.671Z,65.18
2019-03-23T22:48:20.425Z,65.65
2019-03-23T22:50:50.957Z,65.64
2019-03-23T22:53:21.833Z,65.74
2019-03-23T22:55:52.585Z,65.68
2019-03-23T22:58:23.344Z,66.03
2019-03-23T23:00:53.991Z,66.17
2019-03-23T23:03:24.828Z,66.12
2019-03-23T23:05:55.599Z,66.53
2019-03-23T23:08:26.355Z,66.12
2019-03-23T23:10:57.207Z,66.49
2019-03-23T23:13:28.066Z,66.28
2019-03-23T23:15:58.699Z,66.55
2019-03-23T23:18:28.675Z,66.95
2019-03-23T23:20:59.183Z,66.78
2019-03-23T23:23:29.962Z,67.37
2019-03-23T23:26:06.641Z,67.07
2019-03-23T23:28:37.278Z,67.18
2019-03-23T23:31:08.130Z,66.90
2019-03-23T23:33:38.783Z,66.84
2019-03-23T23:36:09.782Z,66.52
2019-03-23T23:38:40.395Z,66.50
2019-03-23T23:41:11.051Z,66.33
2019-03-23T23:43:41.819Z,66.09
2019-03-23T23:46:12.568Z,66.55
2019-03-23T23:48:51.178Z,66.64
2019-03-23T23:51:15.798Z,66.45
2019-03-23T23:53:45.766Z,66.13
2019-03-23T23:56:16.181Z,66.81
2019-03-23T23:58:46.251Z,66.52
